Time;durP1;ratioP1;P1;durP2;ratioP2;P2;SDS_P1;SDS_P2;PMS_P1;PMS_P2;Temp;Humidity;BMP_temperature;BMP_pressure;BME280_temperature;BME280_humidity;BME280_pressure;Samples;Min_cycle;Max_cycle;Signal;HPM_P1;HPM_P2
2021/10/25 00:00:41;;;;;;;4.67;1.90;;;;;;;3.27;78.55;96097.25;5058386;28;20640;-79
2021/10/25 00:03:07;;;;;;;5.07;2.40;;;;;;;3.26;79.07;96107.59;5058793;28;20184;-79
2021/10/25 00:05:33;;;;;;;4.70;2.43;;;;;;;3.23;78.95;96105.22;5074328;28;20181;-79
2021/10/25 00:07:58;;;;;;;3.90;1.80;;;;;;;3.18;78.62;96102.06;5093361;28;20208;-78
2021/10/25 00:10:23;;;;;;;3.77;1.30;;;;;;;3.11;79.34;96094.75;5075128;28;20200;-79
2021/10/25 00:12:49;;;;;;;2.47;1.60;;;;;;;3.05;79.31;96095.09;5058790;28;20187;-79
2021/10/25 00:15:14;;;;;;;1.97;1.40;;;;;;;3.08;79.45;96094.91;5074226;28;20228;-79
2021/10/25 00:17:39;;;;;;;2.13;1.40;;;;;;;3.03;79.17;96091.78;5075526;28;20170;-78
2021/10/25 00:20:06;;;;;;;1.50;1.40;;;;;;;2.96;79.11;96098.19;5075330;28;20208;-77
2021/10/25 00:22:32;;;;;;;1.60;1.20;;;;;;;2.92;79.76;96095.91;5074994;28;20232;-79
2021/10/25 00:24:57;;;;;;;1.60;1.27;;;;;;;2.96;79.66;96105.06;5057533;28;20174;-78
2021/10/25 00:27:23;;;;;;;1.50;1.23;;;;;;;2.95;79.41;96099.09;5058424;28;20228;-79
2021/10/25 00:29:48;;;;;;;1.23;1.13;;;;;;;2.91;79.37;96099.34;5058374;28;20204;-78
2021/10/25 00:32:14;;;;;;;2.23;1.30;;;;;;;2.88;79.85;96100.38;5074485;28;20724;-78
2021/10/25 00:34:39;;;;;;;1.67;1.57;;;;;;;2.85;79.83;96097.97;5055416;28;20196;-79
2021/10/25 00:37:05;;;;;;;1.30;1.10;;;;;;;2.82;79.82;96103.25;5056170;28;20207;-79
2021/10/25 00:39:31;;;;;;;1.67;1.30;;;;;;;2.84;79.58;96104.84;5038848;28;20205;-78
2021/10/25 00:41:57;;;;;;;2.57;1.20;;;;;;;2.87;80.22;96108.16;5071421;28;20182;-78
2021/10/25 00:44:24;;;;;;;2.13;1.20;;;;;;;2.82;80.72;96106.66;5037282;28;20224;-79
2021/10/25 00:46:49;;;;;;;1.73;1.10;;;;;;;2.88;79.73;96099.53;5039231;28;20215;-79
2021/10/25 00:49:14;;;;;;;1.43;1.23;;;;;;;2.88;79.51;96102.94;5062883;28;20244;-79
2021/10/25 00:51:40;;;;;;;3.60;1.30;;;;;;;2.86;79.87;96102.19;5069311;28;20210;-78
2021/10/25 00:54:06;;;;;;;1.43;1.13;;;;;;;2.88;79.46;96100.38;5078680;28;20275;-79
2021/10/25 00:56:33;;;;;;;1.27;1.17;;;;;;;2.88;79.11;96095.22;5078836;28;20191;-79
2021/10/25 00:58:58;;;;;;;1.30;1.17;;;;;;;2.85;78.96;96097.97;5079014;28;20218;-78
2021/10/25 01:01:23;;;;;;;1.60;1.17;;;;;;;2.87;79.17;96098.72;5062526;28;20184;-78
2021/10/25 01:03:49;;;;;;;2.43;1.43;;;;;;;2.88;79.03;96104.66;5078410;28;20200;-78
2021/10/25 01:06:15;;;;;;;3.30;1.97;;;;;;;2.88;78.89;96095.22;5062002;28;20234;-79
2021/10/25 01:08:40;;;;;;;2.77;1.80;;;;;;;2.87;78.81;96095.31;5078758;28;20756;-78
2021/10/25 01:11:06;;;;;;;3.73;1.80;;;;;;;2.87;78.38;96095.31;5062162;28;20212;-79
2021/10/25 01:13:32;;;;;;;2.60;1.90;;;;;;;2.90;78.20;96088.28;5078537;28;20192;-80
2021/10/25 01:15:57;;;;;;;4.17;1.97;;;;;;;2.87;78.21;96096.16;5061585;28;20186;-80
2021/10/25 01:18:22;;;;;;;3.43;2.00;;;;;;;2.87;78.16;96095.31;5078200;28;20204;-79
2021/10/25 01:20:48;;;;;;;3.17;1.93;;;;;;;2.90;78.22;96090.00;5078691;28;20175;-78
2021/10/25 01:23:13;;;;;;;1.97;1.50;;;;;;;2.88;77.59;96084.97;5078294;28;20181;-78
2021/10/25 01:25:38;;;;;;;2.50;1.50;;;;;;;2.94;77.17;96083.81;5077687;28;20261;-78
2021/10/25 01:28:04;;;;;;;1.90;1.53;;;;;;;3.11;76.20;96088.78;5061361;28;20668;-79
2021/10/25 01:30:29;;;;;;;1.47;1.13;;;;;;;3.18;75.86;96089.25;5078272;28;20208;-79
2021/10/25 01:32:55;;;;;;;2.30;1.40;;;;;;;3.21;75.49;96081.38;5096115;28;20189;-78
2021/10/25 01:35:20;;;;;;;1.67;1.20;;;;;;;3.28;75.52;96077.53;5060984;28;20205;-79
2021/10/25 01:37:46;;;;;;;1.70;1.30;;;;;;;3.28;75.44;96080.94;5078488;28;20634;-79
2021/10/25 01:40:12;;;;;;;2.13;1.33;;;;;;;3.28;75.42;96072.41;5078327;28;20176;-77
2021/10/25 01:42:37;;;;;;;1.70;1.20;;;;;;;3.28;75.79;96067.28;5096625;28;20213;-79
2021/10/25 01:45:04;;;;;;;1.87;1.50;;;;;;;3.27;75.54;96070.72;5060953;28;20852;-78
2021/10/25 01:47:29;;;;;;;1.20;1.10;;;;;;;3.26;75.91;96062.22;5078323;28;20176;-79
2021/10/25 01:49:55;;;;;;;1.20;1.10;;;;;;;3.25;75.52;96065.69;5096133;28;20536;-78
2021/10/25 01:52:20;;;;;;;1.20;1.07;;;;;;;3.19;75.70;96070.38;5060017;28;20184;-78
2021/10/25 01:54:46;;;;;;;2.57;1.20;;;;;;;3.17;75.54;96070.44;5077280;28;20189;-79
2021/10/25 01:57:11;;;;;;;2.60;1.20;;;;;;;3.13;75.74;96058.72;5060973;28;20637;-78
2021/10/25 01:59:36;;;;;;;1.30;1.20;;;;;;;3.10;76.23;96064.88;5077854;28;20670;-79
2021/10/25 02:02:02;;;;;;;1.87;1.07;;;;;;;3.08;76.05;96058.16;5061112;28;20180;-79
2021/10/25 02:04:28;;;;;;;2.50;1.30;;;;;;;3.07;76.47;96057.34;5060742;28;20232;-79
2021/10/25 02:06:54;;;;;;;1.30;0.90;;;;;;;3.06;75.69;96058.25;5060789;28;20593;-78
2021/10/25 02:09:20;;;;;;;1.43;0.90;;;;;;;3.06;75.89;96055.69;5077761;28;20209;-78
2021/10/25 02:11:46;;;;;;;1.60;1.10;;;;;;;3.07;76.02;96054.75;5077862;28;20671;-78
2021/10/25 02:14:12;;;;;;;1.07;0.97;;;;;;;3.14;75.28;96057.81;5060484;28;20196;-78
2021/10/25 02:16:37;;;;;;;1.37;1.10;;;;;;;3.25;74.31;96059.72;5077475;28;20190;-78
2021/10/25 02:19:02;;;;;;;1.57;1.13;;;;;;;3.37;72.99;96061.59;5060690;28;20204;-78
2021/10/25 02:21:28;;;;;;;1.83;1.23;;;;;;;3.44;72.83;96055.16;5095439;28;20173;-79
2021/10/25 02:23:53;;;;;;;1.30;1.00;;;;;;;3.51;72.43;96056.44;5076742;28;20223;-78
2021/10/25 02:26:18;;;;;;;3.60;1.00;;;;;;;3.53;72.51;96057.16;5060488;28;20189;-78
2021/10/25 02:28:44;;;;;;;0.93;0.83;;;;;;;3.70;71.25;96056.97;5060355;28;20204;-78
2021/10/25 02:31:11;;;;;;;1.73;0.97;;;;;;;3.72;71.15;96056.91;5060604;28;20227;-78
2021/10/25 02:33:36;;;;;;;1.60;0.90;;;;;;;3.91;70.21;96052.28;5076875;28;20208;-78
2021/10/25 02:36:05;;;;;;;2.47;1.10;;;;;;;3.93;70.11;96054.75;5077325;28;20195;-79
2021/10/25 02:38:30;;;;;;;1.23;1.00;;;;;;;3.93;70.36;96050.44;5060569;28;20287;-79
2021/10/25 02:40:56;;;;;;;1.30;0.97;;;;;;;3.86;71.10;96051.72;5077407;28;21089;-79
2021/10/25 02:43:21;;;;;;;0.90;0.87;;;;;;;3.83;71.78;96035.69;5076887;28;20179;-79
2021/10/25 02:45:46;;;;;;;1.57;1.10;;;;;;;3.76;71.67;96042.13;5076232;28;20180;-79
2021/10/25 02:48:12;;;;;;;1.23;0.90;;;;;;;3.68;72.23;96043.41;5059902;28;20203;-79
2021/10/25 02:50:37;;;;;;;2.33;1.20;;;;;;;3.61;72.43;96037.00;5058614;28;20595;-80
2021/10/25 02:53:05;;;;;;;1.63;1.00;;;;;;;3.57;72.75;96039.84;5060223;28;20182;-77
2021/10/25 02:55:30;;;;;;;2.70;1.17;;;;;;;3.50;73.06;96034.25;5076035;28;20596;-79
2021/10/25 02:57:56;;;;;;;1.93;1.30;;;;;;;3.44;73.72;96037.19;5059913;28;20213;-79
2021/10/25 03:00:21;;;;;;;2.03;1.40;;;;;;;3.39;74.05;96034.09;5061434;28;20199;-79
2021/10/25 03:02:46;;;;;;;1.67;1.07;;;;;;;3.35;74.09;96030.03;5079219;28;20183;-79
2021/10/25 03:05:12;;;;;;;1.50;1.07;;;;;;;3.29;74.73;96028.69;5079440;28;20646;-78
2021/10/25 03:07:37;;;;;;;1.50;0.90;;;;;;;3.27;74.77;96029.66;5064245;28;20198;-79
2021/10/25 03:10:04;;;;;;;1.30;1.17;;;;;;;3.27;75.23;96029.66;5063802;28;20237;-79
2021/10/25 03:12:29;;;;;;;2.53;1.40;;;;;;;3.24;75.64;96032.41;5079510;28;20176;-78
2021/10/25 03:14:55;;;;;;;1.53;1.40;;;;;;;3.29;75.43;96025.28;5061291;28;20392;-79
2021/10/25 03:17:20;;;;;;;1.60;1.20;;;;;;;3.31;74.97;96028.56;5061316;28;20234;-78
2021/10/25 03:19:47;;;;;;;1.50;1.40;;;;;;;3.37;74.64;96029.03;5078712;28;20677;-79
2021/10/25 03:22:13;;;;;;;1.80;1.30;;;;;;;3.43;74.29;96032.97;5078495;28;20179;-79
2021/10/25 03:24:39;;;;;;;1.63;1.17;;;;;;;3.62;72.63;96027.53;5076657;28;20255;-78
2021/10/25 03:27:04;;;;;;;1.60;1.50;;;;;;;3.67;72.64;96028.91;5094072;28;20643;-78
2021/10/25 03:29:30;;;;;;;2.77;1.53;;;;;;;3.74;72.52;96036.25;5058782;28;20232;-79
2021/10/25 03:31:55;;;;;;;1.73;1.50;;;;;;;3.72;73.00;96027.84;5075271;28;20618;-79
2021/10/25 03:34:20;;;;;;;1.73;1.63;;;;;;;3.73;72.75;96030.31;5093256;28;20224;-79
2021/10/25 03:36:48;;;;;;;1.47;1.10;;;;;;;3.70;73.69;96027.91;5075422;28;20183;-79
2021/10/25 03:39:14;;;;;;;2.67;1.50;;;;;;;3.76;73.30;96031.84;5076253;28;20184;-78
2021/10/25 03:41:44;;;;;;;1.77;1.30;;;;;;;3.76;73.27;96027.53;5059018;28;20179;-79
2021/10/25 03:44:17;;;;;;;2.50;1.30;;;;;;;3.81;73.43;96032.41;5092809;28;20222;-78
2021/10/25 03:46:49;;;;;;;1.60;1.30;;;;;;;3.79;73.96;96019.63;5076419;28;20213;-78
2021/10/25 03:51:43;;;;;;;1.87;1.30;;;;;;;3.84;73.99;96016.78;5073717;28;20307;-77
2021/10/25 03:57:00;;;;;;;3.00;1.70;;;;;;;3.81;74.51;95999.00;5076073;28;20177;-78
2021/10/25 04:28:41;;;;;;;4.53;2.70;;;;;;;3.18;78.50;96018.22;5075831;28;20191;-77
2021/10/25 04:31:07;;;;;;;4.30;2.43;;;;;;;3.13;78.65;96009.97;5058471;28;20210;-78
2021/10/25 04:33:33;;;;;;;6.50;3.33;;;;;;;3.22;79.07;96018.88;5078182;28;20201;-78
2021/10/25 04:35:59;;;;;;;7.23;4.70;;;;;;;3.15;79.10;96008.13;5077089;28;20172;-78
2021/10/25 04:38:24;;;;;;;7.10;4.90;;;;;;;3.16;79.34;96021.78;5058834;28;20192;-78
2021/10/25 04:40:49;;;;;;;7.00;4.17;;;;;;;3.22;79.17;96031.69;5076609;28;20248;-78
2021/10/25 04:43:16;;;;;;;4.67;3.30;;;;;;;3.20;79.19;96030.97;5076480;28;20182;-77
2021/10/25 04:45:43;;;;;;;4.50;2.43;;;;;;;3.17;79.33;96036.25;5057725;28;20179;-78
2021/10/25 04:48:08;;;;;;;3.13;2.53;;;;;;;3.17;79.21;96028.56;5058208;28;20606;-78
2021/10/25 04:50:34;;;;;;;2.43;1.80;;;;;;;3.21;79.31;96012.09;5058246;28;20203;-79
2021/10/25 04:52:59;;;;;;;2.20;1.97;;;;;;;3.21;79.42;96012.91;5074307;28;20179;-78
2021/10/25 04:55:24;;;;;;;4.03;1.83;;;;;;;3.22;79.40;96011.16;5074779;28;20659;-78
2021/10/25 04:57:50;;;;;;;2.87;2.10;;;;;;;3.23;79.79;96005.09;5073944;28;20201;-78
2021/10/25 05:00:15;;;;;;;3.33;2.00;;;;;;;3.24;80.00;96006.75;5073803;28;20181;-78
2021/10/25 05:02:40;;;;;;;3.20;2.90;;;;;;;3.27;79.77;96004.00;5074310;28;20180;-78
2021/10/25 05:05:07;;;;;;;4.10;2.73;;;;;;;3.28;79.67;96005.66;5091296;28;20695;-78
2021/10/25 05:07:33;;;;;;;3.23;2.63;;;;;;;3.29;79.52;96009.88;5073252;28;20195;-78
2021/10/25 05:09:59;;;;;;;3.30;2.63;;;;;;;3.37;79.67;96015.38;5058926;28;20297;-79
2021/10/25 05:12:24;;;;;;;2.63;2.43;;;;;;;3.38;79.37;96011.91;5059078;28;20200;-80
2021/10/25 05:14:50;;;;;;;2.63;2.20;;;;;;;3.37;79.19;96005.13;5075413;28;20680;-79
2021/10/25 05:17:16;;;;;;;3.83;2.40;;;;;;;3.32;79.10;96000.25;5074310;28;20176;-79
2021/10/25 05:19:42;;;;;;;2.17;1.97;;;;;;;3.36;79.25;96001.72;5091963;28;20219;-78
2021/10/25 05:22:09;;;;;;;2.13;1.77;;;;;;;3.29;79.50;96008.13;5074928;28;20177;-79
2021/10/25 05:24:34;;;;;;;2.07;1.70;;;;;;;3.26;79.99;96010.06;5074135;28;20684;-78
2021/10/25 05:26:59;;;;;;;4.10;1.90;;;;;;;3.23;79.99;96007.69;5074470;28;20199;-78
2021/10/25 05:29:25;;;;;;;2.50;2.30;;;;;;;3.22;80.22;96004.28;5057604;28;20197;-78
2021/10/25 05:31:50;;;;;;;2.50;2.00;;;;;;;3.23;80.43;96008.50;5074088;28;20198;-79
2021/10/25 05:34:15;;;;;;;2.77;1.83;;;;;;;3.24;80.14;96006.75;5076208;28;20597;-78
2021/10/25 05:36:41;;;;;;;2.20;1.87;;;;;;;3.28;80.36;96000.53;5078560;28;20226;-78
2021/10/25 05:39:10;;;;;;;2.33;1.70;;;;;;;3.27;80.71;96012.56;5057306;28;20208;-79
2021/10/25 05:41:37;;;;;;;3.17;1.80;;;;;;;3.28;80.50;96003.94;5047604;28;20265;-78
2021/10/25 05:44:02;;;;;;;3.53;1.93;;;;;;;3.26;80.64;96010.88;5039665;28;20189;-79
2021/10/25 05:46:27;;;;;;;3.60;2.10;;;;;;;3.25;80.97;96003.28;5077436;28;20188;-79
2021/10/25 05:48:54;;;;;;;3.67;2.40;;;;;;;3.24;80.93;95996.50;5077125;28;20198;-78
2021/10/25 05:51:19;;;;;;;3.33;2.13;;;;;;;3.24;81.10;95997.31;5057061;28;20228;-79
2021/10/25 05:53:46;;;;;;;2.93;2.10;;;;;;;3.29;81.09;96009.88;5068607;28;20192;-79
2021/10/25 05:56:11;;;;;;;2.40;1.80;;;;;;;3.27;81.28;96011.69;5060861;28;20178;-79
2021/10/25 05:58:36;;;;;;;2.00;1.70;;;;;;;3.29;81.09;96015.84;5075829;28;20365;-80
2021/10/25 06:01:06;;;;;;;2.03;1.67;;;;;;;3.36;80.68;96016.31;5075117;28;20258;-79
2021/10/25 06:03:34;;;;;;;2.47;1.80;;;;;;;3.36;80.50;96013.75;5076205;28;20291;-80
2021/10/25 06:05:59;;;;;;;1.80;1.60;;;;;;;3.44;80.45;96000.41;5077414;28;20238;-80
2021/10/25 06:08:24;;;;;;;2.60;2.00;;;;;;;3.45;80.48;96010.63;5059197;28;20229;-79
2021/10/25 06:10:50;;;;;;;2.00;1.80;;;;;;;3.48;80.04;96009.59;5075914;28;20204;-78
2021/10/25 06:13:48;;;;;;;4.03;1.87;;;;;;;3.50;80.40;96007.75;5075599;28;20646;-78
2021/10/25 06:18:39;;;;;;;5.37;2.90;;;;;;;3.55;80.60;96011.69;5079227;28;20279;-80
2021/10/25 06:21:05;;;;;;;3.30;2.43;;;;;;;3.66;80.43;96011.03;5077012;28;20488;-79
2021/10/25 06:23:31;;;;;;;2.73;1.70;;;;;;;3.77;80.43;96016.34;5056399;28;20185;-80
2021/10/25 06:25:57;;;;;;;2.77;1.90;;;;;;;3.84;79.93;96007.34;5057331;28;20187;-80
2021/10/25 06:28:25;;;;;;;2.63;2.20;;;;;;;3.94;79.99;96012.72;5041023;28;20199;-79
2021/10/25 06:30:58;;;;;;;3.70;2.13;;;;;;;4.02;79.64;96015.63;5059043;28;20207;-80
2021/10/25 06:33:23;;;;;;;2.43;1.70;;;;;;;4.11;79.92;96027.91;5064928;28;20181;-80
2021/10/25 06:36:03;;;;;;;2.67;1.70;;;;;;;4.20;79.26;96019.63;5077074;28;20188;-79
2021/10/25 06:38:35;;;;;;;2.73;2.07;;;;;;;4.31;78.98;96024.06;5094997;28;20207;-79
2021/10/25 06:41:00;;;;;;;5.67;2.20;;;;;;;4.40;78.46;96022.66;5076946;28;20258;-79
2021/10/25 06:43:26;;;;;;;3.00;2.00;;;;;;;4.49;77.51;96022.06;5094880;28;20208;-79
2021/10/25 06:45:52;;;;;;;2.63;1.70;;;;;;;4.61;77.42;96029.00;5076949;28;20180;-79
2021/10/25 06:48:17;;;;;;;3.23;2.10;;;;;;;4.69;76.19;96029.34;5063367;28;20254;-79
2021/10/25 06:50:43;;;;;;;2.10;1.90;;;;;;;4.82;76.28;96029.34;5078956;28;20263;-79
2021/10/25 06:53:09;;;;;;;3.23;2.10;;;;;;;4.93;74.98;96026.88;5079193;28;20184;-79
2021/10/25 06:55:35;;;;;;;2.23;1.80;;;;;;;5.10;74.36;96028.34;5078752;28;20639;-79
2021/10/25 06:58:00;;;;;;;3.17;2.13;;;;;;;5.31;72.64;96024.34;5060211;28;20318;-79
2021/10/25 07:00:26;;;;;;;3.70;1.90;;;;;;;5.47;72.53;96029.25;5077368;28;20190;-78
2021/10/25 07:02:51;;;;;;;2.90;2.17;;;;;;;5.67;71.47;96035.63;5077447;28;20172;-79
2021/10/25 07:05:17;;;;;;;2.77;1.87;;;;;;;5.87;70.98;96036.81;5077855;28;20188;-80
2021/10/25 07:07:42;;;;;;;2.63;2.10;;;;;;;5.94;71.43;96041.47;5061162;28;20192;-79
2021/10/25 07:10:09;;;;;;;3.30;2.17;;;;;;;6.05;71.22;96045.06;5054667;28;20323;-79
2021/10/25 07:12:34;;;;;;;4.80;2.47;;;;;;;6.09;71.31;96046.47;5057806;28;20177;-79
2021/10/25 07:15:00;;;;;;;3.37;2.10;;;;;;;6.09;71.19;96046.47;5059951;28;20184;-80
2021/10/25 08:05:53;;;;;;;3.80;3.40;;;;;;;7.57;69.55;96051.09;5077700;28;20213;-80
2021/10/25 08:11:05;;;;;;;3.20;2.90;;;;;;;8.07;67.26;96048.97;5064828;28;20582;-80
2021/10/25 08:13:40;;;;;;;2.30;2.10;;;;;;;8.29;66.49;96045.50;5076061;28;20647;-80
2021/10/25 08:16:12;;;;;;;1.90;1.80;;;;;;;8.50;65.59;96044.66;5059564;28;20184;-81
2021/10/25 08:21:17;;;;;;;3.80;2.30;;;;;;;8.94;63.41;96037.66;5077615;28;20172;-79
2021/10/25 08:23:43;;;;;;;2.13;1.83;;;;;;;9.19;60.41;96035.59;5073399;28;20180;-80
2021/10/25 08:26:09;;;;;;;2.70;1.60;;;;;;;9.34;60.27;96032.56;5074707;28;20181;-81
2021/10/25 08:28:34;;;;;;;2.47;1.90;;;;;;;9.47;59.92;96036.75;5076016;28;20207;-81
2021/10/25 08:31:00;;;;;;;2.53;1.50;;;;;;;9.60;58.70;96042.53;5055753;28;20201;-81
2021/10/25 08:33:31;;;;;;;2.87;1.50;;;;;;;9.70;58.74;96037.38;5055732;28;20204;-80
2021/10/25 08:36:11;;;;;;;2.50;1.60;;;;;;;9.80;58.25;96033.03;5069323;28;20181;-80
2021/10/25 08:41:22;;;;;;;1.43;1.30;;;;;;;10.14;56.15;96029.19;5076805;28;20673;-80
2021/10/25 08:43:50;;;;;;;3.37;1.57;;;;;;;10.22;56.73;96025.97;5076336;28;20998;-78
2021/10/25 08:46:15;;;;;;;1.80;1.50;;;;;;;10.33;56.09;96030.22;5060335;28;20192;-78
2021/10/25 08:48:43;;;;;;;2.53;1.40;;;;;;;10.44;55.84;96025.75;5060349;28;20215;-79
2021/10/25 08:51:08;;;;;;;2.37;1.40;;;;;;;10.51;55.20;96020.81;5059431;28;20279;-80
2021/10/25 08:53:33;;;;;;;3.20;1.53;;;;;;;10.65;53.96;96028.22;5074922;28;20230;-80
2021/10/25 08:55:59;;;;;;;2.27;1.40;;;;;;;10.81;53.31;96021.66;5080644;28;20192;-80
2021/10/25 08:58:24;;;;;;;2.13;1.43;;;;;;;10.77;54.54;96021.91;5061288;28;20196;-79
2021/10/25 09:00:52;;;;;;;1.33;1.20;;;;;;;10.78;53.87;96023.59;5065237;28;20188;-80
2021/10/25 09:03:20;;;;;;;1.30;1.20;;;;;;;10.89;53.76;96025.22;5071900;28;20231;-79
2021/10/25 09:05:57;;;;;;;2.10;1.90;;;;;;;10.84;53.89;96032.59;5074095;28;20189;-79
2021/10/25 09:08:23;;;;;;;2.87;2.47;;;;;;;10.85;53.61;96028.22;5059412;28;20687;-80
2021/10/25 09:10:48;;;;;;;4.13;3.10;;;;;;;10.91;54.57;96036.28;5081469;28;20197;-80
2021/10/25 09:13:16;;;;;;;2.40;2.00;;;;;;;10.97;55.81;96035.75;5097870;28;20238;-80
2021/10/25 09:15:51;;;;;;;2.23;1.97;;;;;;;11.00;56.21;96032.84;5078272;28;20192;-80
2021/10/25 09:18:24;;;;;;;3.20;2.27;;;;;;;11.11;60.40;96033.66;5079735;28;20196;-80
2021/10/25 09:20:54;;;;;;;2.30;2.10;;;;;;;11.26;60.82;96034.88;5060771;28;20173;-80
2021/10/25 09:23:23;;;;;;;2.30;2.00;;;;;;;11.13;60.34;96031.72;5090597;28;20203;-81
2021/10/25 09:25:53;;;;;;;3.70;2.07;;;;;;;11.22;60.66;96036.09;5060876;28;20206;-81
2021/10/25 09:28:25;;;;;;;2.37;2.10;;;;;;;11.36;61.13;96038.28;5077408;28;20200;-80
2021/10/25 09:31:02;;;;;;;2.73;2.33;;;;;;;11.50;61.62;96035.22;5059992;28;20631;-80
2021/10/25 09:33:39;;;;;;;3.63;2.50;;;;;;;11.61;61.75;96036.84;5090914;28;20689;-80
2021/10/25 09:36:09;;;;;;;2.43;2.03;;;;;;;11.90;59.70;96036.75;5057731;28;20580;-80
2021/10/25 09:49:12;;;;;;;2.03;1.80;;;;;;;12.58;54.58;96023.34;5080517;28;20291;-81
2021/10/25 09:51:38;;;;;;;2.30;2.10;;;;;;;12.47;55.57;96016.59;5060098;28;20232;-80
2021/10/25 09:54:05;;;;;;;4.23;2.13;;;;;;;12.43;54.30;96028.25;5059186;28;20617;-80
2021/10/25 09:56:42;;;;;;;1.97;1.77;;;;;;;12.54;54.83;96016.78;5077761;28;20184;-79
2021/10/25 09:59:11;;;;;;;3.30;1.93;;;;;;;12.50;53.70;96018.88;5080173;28;20193;-80
2021/10/25 10:01:37;;;;;;;2.40;1.93;;;;;;;12.50;53.37;96023.28;5062473;28;20177;-80
2021/10/25 10:04:03;;;;;;;2.73;1.67;;;;;;;12.47;53.48;96019.19;5076616;28;20207;-81
2021/10/25 10:06:29;;;;;;;3.17;1.87;;;;;;;12.47;51.87;96014.78;5059838;28;20180;-79
2021/10/25 10:08:55;;;;;;;2.63;1.63;;;;;;;12.51;52.59;96015.31;5076515;28;20257;-81
2021/10/25 10:11:21;;;;;;;4.50;1.97;;;;;;;12.45;51.93;96016.72;5067640;28;20985;-78
2021/10/25 10:13:47;;;;;;;2.03;1.70;;;;;;;12.60;50.52;96014.41;5060733;28;20184;-80
2021/10/25 10:16:13;;;;;;;3.93;1.77;;;;;;;12.64;50.96;96007.97;5077903;28;20639;-81
2021/10/25 10:18:42;;;;;;;1.70;1.60;;;;;;;12.51;50.43;96009.28;5061629;28;20242;-80
2021/10/25 10:21:08;;;;;;;3.57;1.60;;;;;;;12.15;50.55;96007.44;5058949;28;20177;-78
2021/10/25 10:23:35;;;;;;;2.97;1.90;;;;;;;12.25;50.41;96009.19;5068388;28;20244;-81
2021/10/25 10:26:03;;;;;;;5.23;1.67;;;;;;;12.04;51.26;96007.66;5078788;28;20279;-81
2021/10/25 10:28:44;;;;;;;1.73;1.40;;;;;;;12.04;51.48;96015.47;5077815;28;20211;-81
2021/10/25 10:31:24;;;;;;;1.70;1.60;;;;;;;12.06;51.83;96010.09;5078549;28;20204;-81
2021/10/25 10:33:59;;;;;;;2.00;1.80;;;;;;;12.17;52.07;96018.53;5077220;28;20551;-81
2021/10/25 10:36:27;;;;;;;2.50;2.13;;;;;;;12.36;52.43;96021.97;5058245;28;20181;-80
2021/10/25 10:39:06;;;;;;;3.23;2.30;;;;;;;12.50;51.74;96012.84;5062277;28;20230;-80
2021/10/25 10:41:36;;;;;;;5.07;3.70;;;;;;;12.59;51.29;96011.97;5095317;28;20176;-80
2021/10/25 10:44:06;;;;;;;3.17;2.40;;;;;;;12.75;51.66;96006.91;5077221;28;20180;-81
2021/10/25 10:47:08;;;;;;;3.77;2.57;;;;;;;12.70;51.59;96004.72;5076458;28;20554;-81
2021/10/25 10:49:39;;;;;;;3.83;1.83;;;;;;;12.70;52.31;96014.34;4974942;28;20214;-81
2021/10/25 10:52:23;;;;;;;3.83;1.87;;;;;;;12.88;52.12;96006.50;4992907;28;20220;-81
2021/10/25 10:55:00;;;;;;;4.13;2.60;;;;;;;12.80;52.31;96006.44;4994621;28;20191;-80
2021/10/25 10:57:45;;;;;;;2.87;1.93;;;;;;;12.92;52.22;96006.06;5001529;28;20198;-81
2021/10/25 11:00:12;;;;;;;3.23;2.03;;;;;;;12.88;52.76;96014.34;5006607;28;20203;-80
2021/10/25 11:02:50;;;;;;;2.47;2.00;;;;;;;12.99;53.27;96008.91;4993054;28;20207;-79
2021/10/25 11:05:16;;;;;;;3.23;2.07;;;;;;;13.14;52.54;96006.56;4997211;28;20839;-80
2021/10/25 11:07:41;;;;;;;2.53;1.90;;;;;;;13.21;53.08;96010.22;4997265;28;20203;-79
2021/10/25 11:10:10;;;;;;;3.43;2.00;;;;;;;13.30;52.94;96010.13;4977480;28;20742;-79
2021/10/25 11:12:41;;;;;;;2.60;2.10;;;;;;;13.33;50.92;95998.56;4995778;28;20279;-80
2021/10/25 11:15:08;;;;;;;4.57;1.83;;;;;;;13.41;50.81;95996.00;4999590;28;20210;-80
2021/10/25 11:17:36;;;;;;;2.17;1.83;;;;;;;13.23;51.98;96000.44;4986597;28;20207;-80
2021/10/25 11:20:01;;;;;;;3.77;2.40;;;;;;;13.29;51.99;96005.06;4980186;28;21029;-81
2021/10/25 11:22:32;;;;;;;4.33;2.67;;;;;;;13.27;52.76;95994.78;5001885;28;20264;-80
2021/10/25 11:24:58;;;;;;;2.40;2.07;;;;;;;13.27;50.84;95999.19;5029960;28;20183;-80
2021/10/25 11:27:31;;;;;;;2.87;2.60;;;;;;;13.24;52.05;95996.88;5057444;28;20185;-78
2021/10/25 11:30:11;;;;;;;2.50;1.90;;;;;;;13.22;51.49;95988.38;5077419;28;20603;-81
2021/10/25 11:32:38;;;;;;;2.37;2.00;;;;;;;13.20;53.06;95985.94;5063780;28;20184;-80
2021/10/25 11:35:12;;;;;;;2.63;2.00;;;;;;;13.33;52.84;95982.91;5080901;28;20183;-80
2021/10/25 11:37:38;;;;;;;2.60;2.20;;;;;;;13.43;52.77;95980.19;5065909;28;20211;-81
2021/10/25 11:40:08;;;;;;;2.20;2.00;;;;;;;13.63;52.57;95979.03;5065468;28;20557;-80
2021/10/25 11:42:42;;;;;;;2.80;2.40;;;;;;;13.64;52.60;95977.22;5077167;28;20264;-80
2021/10/25 11:45:13;;;;;;;3.90;2.20;;;;;;;13.74;52.33;95973.50;5061159;28;20184;-81
2021/10/25 11:47:47;;;;;;;3.27;1.90;;;;;;;13.71;51.53;95970.41;5062011;28;20589;-80
2021/10/25 11:50:24;;;;;;;2.47;2.10;;;;;;;13.79;50.77;95973.06;5059615;28;20192;-80
2021/10/25 11:52:54;;;;;;;3.17;2.20;;;;;;;13.70;51.06;95969.59;5077542;28;20689;-80
2021/10/25 11:55:21;;;;;;;2.67;2.10;;;;;;;13.71;51.55;95968.63;5062170;28;20172;-79
2021/10/25 11:57:57;;;;;;;4.10;2.23;;;;;;;13.87;51.39;95963.47;5079168;28;20204;-80
2021/10/25 12:00:25;;;;;;;3.70;1.93;;;;;;;14.03;51.61;95967.91;5079334;28;20664;-79
2021/10/25 12:02:51;;;;;;;2.97;2.57;;;;;;;13.95;52.38;95959.22;5067657;28;20263;-80
2021/10/25 12:05:20;;;;;;;3.93;2.30;;;;;;;14.04;52.30;95961.69;5078311;28;20176;-80
2021/10/25 12:07:51;;;;;;;4.60;2.57;;;;;;;14.13;51.76;95952.09;5061991;28;20212;-80
2021/10/25 12:10:17;;;;;;;3.73;2.80;;;;;;;13.91;53.50;95952.69;5081317;28;20253;-78
2021/10/25 12:12:43;;;;;;;4.30;2.60;;;;;;;14.13;52.08;95954.72;5077556;28;20271;-81
2021/10/25 12:15:16;;;;;;;2.20;2.00;;;;;;;14.12;52.32;95955.69;5094671;28;20182;-80
2021/10/25 12:17:41;;;;;;;4.37;2.13;;;;;;;14.12;52.10;95951.28;5078428;28;20177;-82
2021/10/25 12:20:11;;;;;;;3.60;3.00;;;;;;;14.20;52.57;95950.50;5061561;28;20223;-79
2021/10/25 12:22:38;;;;;;;5.23;3.20;;;;;;;14.16;52.12;95949.19;5077808;28;20176;-79
2021/10/25 12:25:04;;;;;;;9.80;6.07;;;;;;;14.33;51.31;95950.84;5059643;28;20271;-80
2021/10/25 12:27:36;;;;;;;2.83;2.60;;;;;;;14.25;51.71;95944.78;5073200;28;20215;-81
2021/10/25 12:30:16;;;;;;;3.57;2.43;;;;;;;14.29;53.12;95938.25;5076316;28;20180;-78
2021/10/25 12:33:01;;;;;;;3.00;2.40;;;;;;;14.31;51.53;95928.47;5054307;28;20214;-80
2021/10/25 12:35:42;;;;;;;3.80;2.23;;;;;;;14.31;50.92;95939.75;5080860;28;20183;-80
2021/10/25 12:38:12;;;;;;;5.27;3.30;;;;;;;14.31;51.86;95928.47;5058654;28;20192;-80
2021/10/25 12:40:46;;;;;;;4.93;3.40;;;;;;;14.32;51.97;95930.13;5075112;28;20543;-82
2021/10/25 12:43:12;;;;;;;5.80;2.40;;;;;;;14.38;51.48;95922.44;5060168;28;20180;-80
2021/10/25 12:45:41;;;;;;;5.67;2.97;;;;;;;14.35;52.00;95925.38;5080037;28;20227;-81
2021/10/25 12:48:08;;;;;;;7.23;3.33;;;;;;;14.32;53.55;95927.50;5067390;28;20197;-80
2021/10/25 12:50:35;;;;;;;3.77;2.93;;;;;;;14.19;54.19;95920.13;5080216;28;20196;-80
2021/10/25 12:53:08;;;;;;;4.33;3.00;;;;;;;14.10;53.79;95918.47;5062725;28;20662;-81
2021/10/25 12:55:35;;;;;;;3.30;2.73;;;;;;;14.11;54.22;95917.50;5078686;28;20534;-81
2021/10/25 12:58:00;;;;;;;3.90;2.90;;;;;;;13.92;54.75;95916.00;5081636;28;20204;-80
2021/10/25 13:00:27;;;;;;;6.47;3.50;;;;;;;13.72;55.28;95918.06;5055186;28;20181;-80
2021/10/25 13:02:54;;;;;;;5.37;3.60;;;;;;;13.61;56.18;95926.16;5081213;28;20250;-80
2021/10/25 13:05:21;;;;;;;3.57;3.10;;;;;;;13.48;56.38;95912.72;5064844;28;20644;-80
2021/10/25 13:07:57;;;;;;;5.33;3.70;;;;;;;13.29;56.64;95921.59;5080517;28;20238;-81
2021/10/25 13:10:24;;;;;;;3.63;3.30;;;;;;;13.41;56.38;95915.13;5061451;28;20200;-79
2021/10/25 13:12:50;;;;;;;5.97;3.30;;;;;;;13.40;56.90;95913.50;5061668;28;20245;-80
2021/10/25 13:15:16;;;;;;;4.30;3.03;;;;;;;13.39;56.63;95905.84;5078583;28;20231;-81
2021/10/25 13:17:42;;;;;;;4.43;3.37;;;;;;;13.20;57.12;95910.31;5066006;28;20630;-81
2021/10/25 13:20:08;;;;;;;6.27;3.57;;;;;;;13.07;57.63;95901.22;5090340;28;20177;-78
2021/10/25 13:22:34;;;;;;;5.60;3.47;;;;;;;12.98;57.94;95908.19;5064085;28;20188;-80
2021/10/25 13:24:59;;;;;;;8.47;3.70;;;;;;;12.86;58.17;95904.19;5063863;28;20230;-80